Drachten Airfield

EHDR · Friesland, 荷兰

使用的METAR站距离机场72 km。
罗盘
风向 的 风向 070° Drachten Airfield 7/25
风: 2 kt, 1 beaufort

2 kt

改变
0 ft 1.000 2.000 3.000 4.000 5.000
Cloud Cloud Cloud Cloud
SCT 800
Cloud Cloud Cloud Cloud Cloud Cloud
BKN 1.000
METAR EHVL 050026Z AUTO 07002KT 0600 FG SCT008/// BKN010/// 03/02 Q1013 RED

METAR Drachten Airfield - EHDR

Drachten Airfield是,荷兰中的小机场。 该机场位于纬度53,11835和经度6,12995。 该机场有一条跑道: 7/25. 本场的ICAO机场代码为EHDR。 机场在Amsterdam FIR中。

该航空气象观测是针对Vlieland Heliport在2024年3月5日 01:26, 当地时间进行的。

机场观察

风向为070°,速度为2 kt。

可见度为600 m。

有疏云,零星散落的云朵在800 ft的高度 和 碎云在1.000 ft的高度。 破损或更高的上限为1.000 ft。

当前天气为多雾路段。 温度为3 °C,阵风为1 °C。 露点为2 °C,相对湿度为93%。 海平面上的气压为1013 hPa (QNH)。

白天

今天,太阳从07:11升起,在18:21降落。 这适用于Drachten Airfield,世界夏令时可能有所不同。 当地时间与世界标准时间之间的时差为+1 小时。 当前,没有夏令时有效。

公司介绍

本场上唯一已知的公司是Dutch-Houses BV。

体会

到Vliegles.nl去找飞行课程,跳伞和其他飞行体验。 浏览页面,了解Drachten Airfield附近所有可用的活动。 你也可以使用搜索功能来寻找你所在地附近的特定飞行课程、跳伞或其他飞行体验。

跑道

Id 标题 侧风 逆风 侧风 %
7/25 077°-257° 2 kt 12 %

逆风成分最大的方向会被突出显示,并用于横风计算。 这并不一定意味着这个方向在使用。

乌云

800 ft SCT 疏云,零星散落的云朵
1.000 ft BKN 碎云

温度 & 天气

天气 多雾路段
温度 3 °C
露点 2 °C
相对湿度 93%
风寒 1 °C
Kp-index 0 (0-9)

白天

日出
07:16 (5:38)
中午
12:51
日落
18:25

小工具

你想在你的网站上有一个关于Drachten Airfield的当前航空天气(METAR)的小部件吗?

显示HTML代码
?>